sensor_id;sensor_type;location;lat;lon;timestamp;pressure;altitude;pressure_sealevel;temperature;humidity
21086;BME280;72320;50.082;20.000;2024-03-25T00:02:34;97697.00;;;1.81;69.75
21086;BME280;72320;50.082;20.000;2024-03-25T00:05:20;97700.75;;;1.81;69.72
21086;BME280;72320;50.082;20.000;2024-03-25T00:07:58;97702.30;;;1.82;69.94
21086;BME280;72320;50.082;20.000;2024-03-25T00:10:44;97702.80;;;1.86;70.04
21086;BME280;72320;50.082;20.000;2024-03-25T00:13:30;97702.41;;;1.86;70.13
21086;BME280;72320;50.082;20.000;2024-03-25T00:16:16;97707.00;;;1.85;70.20
21086;BME280;72320;50.082;20.000;2024-03-25T00:19:02;97707.35;;;1.87;70.16
21086;BME280;72320;50.082;20.000;2024-03-25T00:21:48;97704.44;;;1.89;70.27
21086;BME280;72320;50.082;20.000;2024-03-25T00:24:34;97703.43;;;1.91;70.23
21086;BME280;72320;50.082;20.000;2024-03-25T00:27:00;97696.14;;;1.95;70.38
21086;BME280;72320;50.082;20.000;2024-03-25T00:29:25;97698.73;;;2.00;70.40
21086;BME280;72320;50.082;20.000;2024-03-25T00:31:51;97697.89;;;2.02;70.36
21086;BME280;72320;50.082;20.000;2024-03-25T00:34:17;97696.31;;;2.03;70.26
21086;BME280;72320;50.082;20.000;2024-03-25T00:36:43;97700.58;;;2.01;70.27
21086;BME280;72320;50.082;20.000;2024-03-25T00:39:09;97702.11;;;2.00;70.29
21086;BME280;72320;50.082;20.000;2024-03-25T00:41:35;97703.98;;;2.01;70.38
21086;BME280;72320;50.082;20.000;2024-03-25T00:44:01;97694.31;;;2.03;70.41
21086;BME280;72320;50.082;20.000;2024-03-25T00:46:27;97695.79;;;2.03;70.38
21086;BME280;72320;50.082;20.000;2024-03-25T00:48:53;97696.02;;;2.02;70.36
21086;BME280;72320;50.082;20.000;2024-03-25T00:51:19;97694.88;;;2.02;70.46
21086;BME280;72320;50.082;20.000;2024-03-25T00:53:45;97693.25;;;2.02;70.43
21086;BME280;72320;50.082;20.000;2024-03-25T00:56:10;97693.44;;;2.05;70.44
21086;BME280;72320;50.082;20.000;2024-03-25T00:58:36;97695.16;;;2.09;70.34
21086;BME280;72320;50.082;20.000;2024-03-25T01:01:02;97693.68;;;2.12;70.43
21086;BME280;72320;50.082;20.000;2024-03-25T01:03:28;97689.40;;;2.14;70.42
21086;BME280;72320;50.082;20.000;2024-03-25T01:05:53;97692.46;;;2.22;70.40
21086;BME280;72320;50.082;20.000;2024-03-25T01:08:19;97689.54;;;2.25;70.29
21086;BME280;72320;50.082;20.000;2024-03-25T01:11:05;97691.45;;;2.30;70.32
21086;BME280;72320;50.082;20.000;2024-03-25T01:13:51;97686.27;;;2.44;70.27
21086;BME280;72320;50.082;20.000;2024-03-25T01:16:39;97685.79;;;2.60;70.19
21086;BME280;72320;50.082;20.000;2024-03-25T01:19:25;97685.65;;;2.73;70.20
21086;BME280;72320;50.082;20.000;2024-03-25T01:22:11;97677.58;;;2.84;70.07
21086;BME280;72320;50.082;20.000;2024-03-25T01:24:57;97676.83;;;2.97;69.80
21086;BME280;72320;50.082;20.000;2024-03-25T01:27:43;97675.83;;;3.06;69.62
21086;BME280;72320;50.082;20.000;2024-03-25T01:30:29;97675.58;;;3.15;69.46
21086;BME280;72320;50.082;20.000;2024-03-25T01:33:15;97675.44;;;3.20;69.18
21086;BME280;72320;50.082;20.000;2024-03-25T01:36:01;97674.39;;;3.15;68.98
21086;BME280;72320;50.082;20.000;2024-03-25T01:38:46;97679.67;;;3.05;68.78
21086;BME280;72320;50.082;20.000;2024-03-25T01:41:32;97681.34;;;2.98;68.63
21086;BME280;72320;50.082;20.000;2024-03-25T01:44:18;97678.79;;;2.94;68.66
21086;BME280;72320;50.082;20.000;2024-03-25T01:47:05;97680.57;;;2.93;68.68
21086;BME280;72320;50.082;20.000;2024-03-25T01:49:51;97676.90;;;2.93;68.79
21086;BME280;72320;50.082;20.000;2024-03-25T01:52:41;97675.42;;;2.94;68.72
21086;BME280;72320;50.082;20.000;2024-03-25T01:55:29;97672.48;;;2.90;68.68
21086;BME280;72320;50.082;20.000;2024-03-25T01:58:16;97674.36;;;2.83;68.83
21086;BME280;72320;50.082;20.000;2024-03-25T02:00:58;97674.29;;;2.77;68.79
21086;BME280;72320;50.082;20.000;2024-03-25T02:03:46;97680.17;;;2.76;68.94
21086;BME280;72320;50.082;20.000;2024-03-25T02:06:35;97676.52;;;2.71;69.06
21086;BME280;72320;50.082;20.000;2024-03-25T02:09:17;97672.71;;;2.71;69.16
21086;BME280;72320;50.082;20.000;2024-03-25T02:12:04;97674.35;;;2.69;69.25
21086;BME280;72320;50.082;20.000;2024-03-25T02:14:51;97675.77;;;2.64;69.32
21086;BME280;72320;50.082;20.000;2024-03-25T02:17:37;97671.99;;;2.64;69.51
21086;BME280;72320;50.082;20.000;2024-03-25T02:20:23;97669.77;;;2.62;69.55
21086;BME280;72320;50.082;20.000;2024-03-25T02:23:10;97670.94;;;2.58;69.72
21086;BME280;72320;50.082;20.000;2024-03-25T02:25:56;97674.04;;;2.60;69.83
21086;BME280;72320;50.082;20.000;2024-03-25T02:28:41;97674.52;;;2.56;69.94
21086;BME280;72320;50.082;20.000;2024-03-25T02:31:28;97670.39;;;2.55;70.02
21086;BME280;72320;50.082;20.000;2024-03-25T02:34:14;97673.69;;;2.54;70.08
21086;BME280;72320;50.082;20.000;2024-03-25T02:37:00;97676.80;;;2.55;70.20
21086;BME280;72320;50.082;20.000;2024-03-25T02:39:46;97675.35;;;2.64;70.38
21086;BME280;72320;50.082;20.000;2024-03-25T02:42:32;97672.80;;;2.75;70.55
21086;BME280;72320;50.082;20.000;2024-03-25T02:45:18;97670.48;;;2.85;70.58
21086;BME280;72320;50.082;20.000;2024-03-25T02:48:04;97673.22;;;2.97;70.53
21086;BME280;72320;50.082;20.000;2024-03-25T02:50:50;97666.46;;;3.09;70.65
21086;BME280;72320;50.082;20.000;2024-03-25T02:53:35;97664.33;;;3.17;70.47
21086;BME280;72320;50.082;20.000;2024-03-25T02:56:21;97663.19;;;3.24;70.34
21086;BME280;72320;50.082;20.000;2024-03-25T02:59:07;97661.34;;;3.28;70.29
21086;BME280;72320;50.082;20.000;2024-03-25T03:01:33;97661.25;;;3.34;70.11
21086;BME280;72320;50.082;20.000;2024-03-25T03:04:19;97665.01;;;3.38;70.23
21086;BME280;72320;50.082;20.000;2024-03-25T03:07:05;97658.94;;;3.43;70.01
21086;BME280;72320;50.082;20.000;2024-03-25T03:09:51;97655.13;;;3.47;69.99
21086;BME280;72320;50.082;20.000;2024-03-25T03:12:37;97658.08;;;3.54;70.02
21086;BME280;72320;50.082;20.000;2024-03-25T03:15:23;97659.42;;;3.63;69.87
21086;BME280;72320;50.082;20.000;2024-03-25T03:18:08;97660.95;;;3.65;69.61
21086;BME280;72320;50.082;20.000;2024-03-25T03:20:55;97669.24;;;3.63;69.61
21086;BME280;72320;50.082;20.000;2024-03-25T03:23:41;97675.16;;;3.56;69.51
21086;BME280;72320;50.082;20.000;2024-03-25T03:26:27;97684.39;;;3.43;69.47
21086;BME280;72320;50.082;20.000;2024-03-25T03:28:54;97680.59;;;3.35;69.47
21086;BME280;72320;50.082;20.000;2024-03-25T03:31:40;97685.23;;;3.22;69.62
21086;BME280;72320;50.082;20.000;2024-03-25T03:34:26;97686.54;;;3.11;69.58
21086;BME280;72320;50.082;20.000;2024-03-25T03:37:00;97689.96;;;3.06;69.85
21086;BME280;72320;50.082;20.000;2024-03-25T03:39:46;97689.66;;;3.00;69.91
21086;BME280;72320;50.082;20.000;2024-03-25T03:42:32;97690.80;;;2.94;70.08
21086;BME280;72320;50.082;20.000;2024-03-25T03:45:18;97690.08;;;2.92;70.08
21086;BME280;72320;50.082;20.000;2024-03-25T03:48:04;97690.33;;;2.96;70.29
21086;BME280;72320;50.082;20.000;2024-03-25T03:50:50;97688.11;;;3.07;70.47
21086;BME280;72320;50.082;20.000;2024-03-25T03:53:16;97693.11;;;3.24;70.53
21086;BME280;72320;50.082;20.000;2024-03-25T03:55:41;97689.89;;;3.40;70.59
21086;BME280;72320;50.082;20.000;2024-03-25T03:58:07;97693.23;;;3.56;70.58
21086;BME280;72320;50.082;20.000;2024-03-25T04:00:34;97691.21;;;3.72;70.41
21086;BME280;72320;50.082;20.000;2024-03-25T04:03:01;97695.79;;;3.85;70.24
21086;BME280;72320;50.082;20.000;2024-03-25T04:05:30;97695.89;;;3.93;70.16
21086;BME280;72320;50.082;20.000;2024-03-25T04:07:56;97696.07;;;3.98;69.95
21086;BME280;72320;50.082;20.000;2024-03-25T04:10:23;97691.94;;;4.00;69.63
21086;BME280;72320;50.082;20.000;2024-03-25T04:12:49;97687.85;;;3.96;69.66
21086;BME280;72320;50.082;20.000;2024-03-25T04:15:15;97688.54;;;3.86;69.35
21086;BME280;72320;50.082;20.000;2024-03-25T04:17:46;97685.23;;;3.75;69.37
21086;BME280;72320;50.082;20.000;2024-03-25T04:20:12;97687.67;;;3.68;69.35
21086;BME280;72320;50.082;20.000;2024-03-25T04:22:45;97684.52;;;3.66;69.43
21086;BME280;72320;50.082;20.000;2024-03-25T04:25:12;97682.02;;;3.62;69.49
21086;BME280;72320;50.082;20.000;2024-03-25T04:27:40;97684.89;;;3.52;69.38
21086;BME280;72320;50.082;20.000;2024-03-25T04:30:29;97686.22;;;3.40;69.57
21086;BME280;72320;50.082;20.000;2024-03-25T04:33:15;97683.05;;;3.27;69.57
21086;BME280;72320;50.082;20.000;2024-03-25T04:36:02;97688.25;;;3.18;69.74
21086;BME280;72320;50.082;20.000;2024-03-25T04:38:48;97685.56;;;3.08;69.90
21086;BME280;72320;50.082;20.000;2024-03-25T04:41:34;97687.58;;;3.03;70.05
21086;BME280;72320;50.082;20.000;2024-03-25T04:44:00;97693.13;;;2.99;70.19
21086;BME280;72320;50.082;20.000;2024-03-25T04:46:46;97700.17;;;2.97;70.31
21086;BME280;72320;50.082;20.000;2024-03-25T04:49:32;97696.34;;;2.91;70.37
21086;BME280;72320;50.082;20.000;2024-03-25T04:52:17;97699.58;;;2.91;70.52
21086;BME280;72320;50.082;20.000;2024-03-25T04:55:03;97699.09;;;2.95;70.61
21086;BME280;72320;50.082;20.000;2024-03-25T04:57:50;97695.91;;;3.11;70.83
21086;BME280;72320;50.082;20.000;2024-03-25T05:00:36;97692.94;;;3.31;70.91
21086;BME280;72320;50.082;20.000;2024-03-25T05:03:02;97694.54;;;3.57;70.95
21086;BME280;72320;50.082;20.000;2024-03-25T05:05:48;97693.45;;;3.88;70.80
21086;BME280;72320;50.082;20.000;2024-03-25T05:08:33;97698.02;;;4.23;70.43
21086;BME280;72320;50.082;20.000;2024-03-25T05:11:19;97699.78;;;4.52;70.08
21086;BME280;72320;50.082;20.000;2024-03-25T05:14:04;97699.22;;;4.81;69.56
21086;BME280;72320;50.082;20.000;2024-03-25T05:16:51;97698.69;;;5.08;68.85
21086;BME280;72320;50.082;20.000;2024-03-25T05:19:36;97695.65;;;5.31;68.17
21086;BME280;72320;50.082;20.000;2024-03-25T05:22:22;97696.30;;;5.40;67.34
21086;BME280;72320;50.082;20.000;2024-03-25T05:25:08;97701.44;;;5.49;66.57
21086;BME280;72320;50.082;20.000;2024-03-25T05:27:54;97704.56;;;5.59;65.81
21086;BME280;72320;50.082;20.000;2024-03-25T05:30:39;97703.49;;;5.66;65.25
21086;BME280;72320;50.082;20.000;2024-03-25T05:33:25;97703.87;;;5.81;64.44
21086;BME280;72320;50.082;20.000;2024-03-25T05:36:11;97702.58;;;6.17;64.10
21086;BME280;72320;50.082;20.000;2024-03-25T05:38:57;97709.72;;;6.62;63.46
21086;BME280;72320;50.082;20.000;2024-03-25T05:41:43;97703.86;;;7.17;62.60
21086;BME280;72320;50.082;20.000;2024-03-25T05:44:29;97703.84;;;7.60;61.30
21086;BME280;72320;50.082;20.000;2024-03-25T05:47:15;97705.27;;;7.75;60.07
21086;BME280;72320;50.082;20.000;2024-03-25T05:50:01;97704.98;;;7.72;59.06
21086;BME280;72320;50.082;20.000;2024-03-25T05:52:47;97707.15;;;7.65;58.17
21086;BME280;72320;50.082;20.000;2024-03-25T05:55:34;97713.74;;;7.52;57.72
21086;BME280;72320;50.082;20.000;2024-03-25T05:58:20;97713.14;;;7.34;57.54
21086;BME280;72320;50.082;20.000;2024-03-25T06:01:06;97715.30;;;7.20;57.44
21086;BME280;72320;50.082;20.000;2024-03-25T06:03:52;97710.27;;;7.13;57.50
21086;BME280;72320;50.082;20.000;2024-03-25T06:06:38;97719.24;;;6.97;57.51
21086;BME280;72320;50.082;20.000;2024-03-25T06:09:24;97723.19;;;6.87;57.51
21086;BME280;72320;50.082;20.000;2024-03-25T06:11:50;97726.54;;;6.86;57.50
21086;BME280;72320;50.082;20.000;2024-03-25T06:14:36;97731.45;;;6.88;57.57
21086;BME280;72320;50.082;20.000;2024-03-25T06:17:21;97731.34;;;6.75;57.51
21086;BME280;72320;50.082;20.000;2024-03-25T06:20:07;97732.50;;;6.64;58.34
21086;BME280;72320;50.082;20.000;2024-03-25T06:22:53;97736.98;;;6.62;58.83
21086;BME280;72320;50.082;20.000;2024-03-25T06:25:39;97733.88;;;6.44;59.36
21086;BME280;72320;50.082;20.000;2024-03-25T06:28:25;97738.83;;;6.16;59.91
21086;BME280;72320;50.082;20.000;2024-03-25T06:30:51;97742.41;;;6.14;60.51
21086;BME280;72320;50.082;20.000;2024-03-25T06:33:36;97743.84;;;6.05;61.08
21086;BME280;72320;50.082;20.000;2024-03-25T06:36:21;97748.64;;;5.97;61.42
21086;BME280;72320;50.082;20.000;2024-03-25T06:39:09;97751.30;;;5.87;61.83
21086;BME280;72320;50.082;20.000;2024-03-25T06:41:55;97747.36;;;5.75;62.07
21086;BME280;72320;50.082;20.000;2024-03-25T06:44:41;97749.50;;;5.73;62.42
21086;BME280;72320;50.082;20.000;2024-03-25T06:47:26;97747.64;;;5.76;62.67
21086;BME280;72320;50.082;20.000;2024-03-25T06:50:12;97751.67;;;5.79;62.77
21086;BME280;72320;50.082;20.000;2024-03-25T06:52:58;97752.85;;;5.95;62.92
21086;BME280;72320;50.082;20.000;2024-03-25T06:55:39;97758.30;;;6.25;63.01
21086;BME280;72320;50.082;20.000;2024-03-25T06:58:28;97757.85;;;6.83;62.91
21086;BME280;72320;50.082;20.000;2024-03-25T07:01:14;97760.19;;;7.24;62.14
21086;BME280;72320;50.082;20.000;2024-03-25T07:04:00;97758.17;;;7.43;61.64
21086;BME280;72320;50.082;20.000;2024-03-25T07:06:46;97760.94;;;7.60;61.14
21086;BME280;72320;50.082;20.000;2024-03-25T07:09:31;97763.40;;;7.58;60.56
21086;BME280;72320;50.082;20.000;2024-03-25T07:12:17;97765.90;;;7.58;60.36
21086;BME280;72320;50.082;20.000;2024-03-25T07:14:44;97761.73;;;7.44;60.32
21086;BME280;72320;50.082;20.000;2024-03-25T07:17:09;97771.84;;;7.30;60.65
21086;BME280;72320;50.082;20.000;2024-03-25T07:19:35;97773.33;;;7.36;60.90
21086;BME280;72320;50.082;20.000;2024-03-25T07:22:03;97772.13;;;7.55;61.03
21086;BME280;72320;50.082;20.000;2024-03-25T07:24:30;97777.77;;;7.78;60.80
21086;BME280;72320;50.082;20.000;2024-03-25T07:26:55;97775.12;;;8.07;60.56
21086;BME280;72320;50.082;20.000;2024-03-25T07:29:22;97776.91;;;8.35;60.04
21086;BME280;72320;50.082;20.000;2024-03-25T07:31:47;97775.79;;;8.36;59.49
21086;BME280;72320;50.082;20.000;2024-03-25T07:34:13;97775.77;;;8.11;59.07
21086;BME280;72320;50.082;20.000;2024-03-25T07:36:39;97780.04;;;7.93;59.15
21086;BME280;72320;50.082;20.000;2024-03-25T07:39:05;97782.66;;;7.89;59.20
21086;BME280;72320;50.082;20.000;2024-03-25T07:41:59;97786.17;;;7.99;59.27
21086;BME280;72320;50.082;20.000;2024-03-25T07:44:25;97782.33;;;8.07;59.12
21086;BME280;72320;50.082;20.000;2024-03-25T07:46:50;97784.74;;;8.11;59.20
21086;BME280;72320;50.082;20.000;2024-03-25T07:49:17;97793.95;;;7.98;59.29
21086;BME280;72320;50.082;20.000;2024-03-25T07:51:43;97795.21;;;7.90;59.36
21086;BME280;72320;50.082;20.000;2024-03-25T07:54:10;97797.27;;;8.00;59.63
21086;BME280;72320;50.082;20.000;2024-03-25T07:56:56;97797.55;;;8.03;59.54
21086;BME280;72320;50.082;20.000;2024-03-25T07:59:41;97798.17;;;7.98;59.60
21086;BME280;72320;50.082;20.000;2024-03-25T08:02:27;97798.20;;;8.03;60.05
21086;BME280;72320;50.082;20.000;2024-03-25T08:05:15;97804.30;;;8.16;60.08
21086;BME280;72320;50.082;20.000;2024-03-25T08:08:01;97808.42;;;8.36;60.32
21086;BME280;72320;50.082;20.000;2024-03-25T08:10:46;97806.88;;;8.33;60.25
21086;BME280;72320;50.082;20.000;2024-03-25T08:13:32;97808.95;;;8.10;60.68
21086;BME280;72320;50.082;20.000;2024-03-25T08:16:18;97809.45;;;7.77;61.53
21086;BME280;72320;50.082;20.000;2024-03-25T08:19:04;97811.66;;;7.62;62.42
21086;BME280;72320;50.082;20.000;2024-03-25T08:21:30;97814.70;;;7.64;62.79
21086;BME280;72320;50.082;20.000;2024-03-25T08:24:15;97812.62;;;7.62;63.34
21086;BME280;72320;50.082;20.000;2024-03-25T08:27:01;97815.44;;;7.59;63.71
21086;BME280;72320;50.082;20.000;2024-03-25T08:29:44;97816.90;;;7.66;64.32
21086;BME280;72320;50.082;20.000;2024-03-25T08:32:30;97815.77;;;7.81;64.89
21086;BME280;72320;50.082;20.000;2024-03-25T08:35:17;97818.84;;;7.89;64.99
21086;BME280;72320;50.082;20.000;2024-03-25T08:38:04;97814.30;;;7.83;65.21
21086;BME280;72320;50.082;20.000;2024-03-25T08:40:51;97815.29;;;7.77;65.51
21086;BME280;72320;50.082;20.000;2024-03-25T08:43:37;97813.95;;;7.68;65.88
21086;BME280;72320;50.082;20.000;2024-03-25T08:46:23;97821.21;;;7.69;66.14
21086;BME280;72320;50.082;20.000;2024-03-25T08:49:09;97820.83;;;7.74;66.35
21086;BME280;72320;50.082;20.000;2024-03-25T08:51:55;97823.89;;;7.85;66.54
21086;BME280;72320;50.082;20.000;2024-03-25T08:54:41;97824.98;;;8.26;66.71
21086;BME280;72320;50.082;20.000;2024-03-25T08:57:27;97822.14;;;8.75;66.71
21086;BME280;72320;50.082;20.000;2024-03-25T09:00:14;97825.56;;;9.21;66.21
21086;BME280;72320;50.082;20.000;2024-03-25T09:03:00;97822.16;;;9.57;65.53
21086;BME280;72320;50.082;20.000;2024-03-25T09:05:26;97820.63;;;9.79;64.76
21086;BME280;72320;50.082;20.000;2024-03-25T09:08:12;97820.48;;;9.92;63.82
21086;BME280;72320;50.082;20.000;2024-03-25T09:10:57;97819.28;;;10.10;62.92
21086;BME280;72320;50.082;20.000;2024-03-25T09:13:38;97819.48;;;10.00;62.19
21086;BME280;72320;50.082;20.000;2024-03-25T09:16:24;97820.16;;;9.72;61.72
21086;BME280;72320;50.082;20.000;2024-03-25T09:19:10;97824.61;;;9.60;61.74
21086;BME280;72320;50.082;20.000;2024-03-25T09:21:56;97830.98;;;9.56;61.64
21086;BME280;72320;50.082;20.000;2024-03-25T09:24:41;97831.06;;;9.58;61.57
21086;BME280;72320;50.082;20.000;2024-03-25T09:27:27;97833.66;;;9.67;61.32
21086;BME280;72320;50.082;20.000;2024-03-25T09:30:14;97837.89;;;9.66;61.17
21086;BME280;72320;50.082;20.000;2024-03-25T09:32:59;97839.84;;;9.58;61.33
21086;BME280;72320;50.082;20.000;2024-03-25T09:35:45;97836.93;;;9.71;61.44
21086;BME280;72320;50.082;20.000;2024-03-25T09:38:31;97837.42;;;9.81;60.93
21086;BME280;72320;50.082;20.000;2024-03-25T09:41:17;97841.36;;;9.89;60.57
21086;BME280;72320;50.082;20.000;2024-03-25T09:44:04;97840.14;;;9.83;59.81
21086;BME280;72320;50.082;20.000;2024-03-25T09:46:51;97837.71;;;9.98;59.50
21086;BME280;72320;50.082;20.000;2024-03-25T09:49:42;97834.20;;;10.38;58.91
21086;BME280;72320;50.082;20.000;2024-03-25T09:52:29;97838.39;;;11.18;57.60
21086;BME280;72320;50.082;20.000;2024-03-25T09:55:15;97839.84;;;11.86;55.80
21086;BME280;72320;50.082;20.000;2024-03-25T09:57:43;97837.05;;;12.17;54.62
21086;BME280;72320;50.082;20.000;2024-03-25T10:00:30;97838.55;;;11.71;53.90
21086;BME280;72320;50.082;20.000;2024-03-25T10:03:15;97845.23;;;10.30;54.95
21086;BME280;72320;50.082;20.000;2024-03-25T10:05:57;97852.71;;;8.96;59.38
21086;BME280;72320;50.082;20.000;2024-03-25T10:08:45;97851.17;;;8.45;62.93
21086;BME280;72320;50.082;20.000;2024-03-25T10:11:34;97855.15;;;8.34;64.86
21086;BME280;72320;50.082;20.000;2024-03-25T10:14:16;97850.09;;;8.48;65.76
21086;BME280;72320;50.082;20.000;2024-03-25T10:17:03;97847.45;;;8.77;65.99
21086;BME280;72320;50.082;20.000;2024-03-25T10:19:49;97841.31;;;9.12;65.98
21086;BME280;72320;50.082;20.000;2024-03-25T10:22:44;97838.74;;;9.12;65.62
21086;BME280;72320;50.082;20.000;2024-03-25T10:25:31;97830.69;;;9.03;65.35
21086;BME280;72320;50.082;20.000;2024-03-25T10:28:17;97835.77;;;8.90;65.33
21086;BME280;72320;50.082;20.000;2024-03-25T10:31:04;97836.71;;;8.98;65.41
21086;BME280;72320;50.082;20.000;2024-03-25T10:33:29;97829.94;;;9.12;64.87
21086;BME280;72320;50.082;20.000;2024-03-25T10:35:59;97837.89;;;9.53;64.15
21086;BME280;72320;50.082;20.000;2024-03-25T10:38:27;97835.21;;;10.28;62.92
21086;BME280;72320;50.082;20.000;2024-03-25T10:40:54;97837.63;;;10.74;61.25
21086;BME280;72320;50.082;20.000;2024-03-25T10:43:22;97841.13;;;11.11;59.71
21086;BME280;72320;50.082;20.000;2024-03-25T10:45:56;97841.40;;;11.25;57.95
21086;BME280;72320;50.082;20.000;2024-03-25T10:48:40;97842.97;;;11.25;56.82
21086;BME280;72320;50.082;20.000;2024-03-25T10:51:09;97841.92;;;11.11;56.61
21086;BME280;72320;50.082;20.000;2024-03-25T10:53:41;97843.77;;;10.91;56.38
21086;BME280;72320;50.082;20.000;2024-03-25T10:56:10;97837.85;;;10.94;56.06
21086;BME280;72320;50.082;20.000;2024-03-25T10:58:36;97836.55;;;11.02;55.34
21086;BME280;72320;50.082;20.000;2024-03-25T11:01:02;97831.81;;;11.36;54.57
21086;BME280;72320;50.082;20.000;2024-03-25T11:03:29;97831.94;;;11.35;53.81
21086;BME280;72320;50.082;20.000;2024-03-25T11:05:56;97833.08;;;10.78;53.52
21086;BME280;72320;50.082;20.000;2024-03-25T11:08:31;97830.09;;;10.38;53.67
21086;BME280;72320;50.082;20.000;2024-03-25T11:10:58;97836.17;;;10.63;53.80
21086;BME280;72320;50.082;20.000;2024-03-25T11:13:23;97835.29;;;11.12;53.24
21086;BME280;72320;50.082;20.000;2024-03-25T11:16:12;97832.61;;;11.31;52.64
21086;BME280;72320;50.082;20.000;2024-03-25T11:19:04;97834.81;;;11.29;52.46
21086;BME280;72320;50.082;20.000;2024-03-25T11:21:50;97829.65;;;11.71;51.64
21086;BME280;72320;50.082;20.000;2024-03-25T11:24:37;97830.33;;;11.74;50.89
21086;BME280;72320;50.082;20.000;2024-03-25T11:27:26;97826.86;;;11.53;50.41
21086;BME280;72320;50.082;20.000;2024-03-25T11:30:14;97834.80;;;11.03;50.62
21086;BME280;72320;50.082;20.000;2024-03-25T11:33:02;97841.11;;;10.30;51.26
21086;BME280;72320;50.082;20.000;2024-03-25T11:36:11;97837.85;;;9.22;53.39
21086;BME280;72320;50.082;20.000;2024-03-25T11:39:08;97869.34;;;7.80;57.54
21086;BME280;72320;50.082;20.000;2024-03-25T11:41:57;97875.84;;;6.73;61.51
21086;BME280;72320;50.082;20.000;2024-03-25T11:44:42;97878.17;;;6.04;64.59
21086;BME280;72320;50.082;20.000;2024-03-25T11:47:28;97873.34;;;5.81;66.66
21086;BME280;72320;50.082;20.000;2024-03-25T11:50:19;97874.56;;;6.10;68.47
21086;BME280;72320;50.082;20.000;2024-03-25T11:53:07;97877.60;;;6.42;69.73
21086;BME280;72320;50.082;20.000;2024-03-25T11:55:53;97875.77;;;6.66;70.44
21086;BME280;72320;50.082;20.000;2024-03-25T11:58:39;97877.36;;;6.80;70.82
21086;BME280;72320;50.082;20.000;2024-03-25T12:01:05;97874.91;;;6.74;70.88
21086;BME280;72320;50.082;20.000;2024-03-25T12:03:51;97874.43;;;6.85;71.04
21086;BME280;72320;50.082;20.000;2024-03-25T12:06:37;97879.36;;;6.96;71.22
21086;BME280;72320;50.082;20.000;2024-03-25T12:09:18;97875.15;;;6.89;71.18
21086;BME280;72320;50.082;20.000;2024-03-25T12:12:03;97877.80;;;6.80;71.19
21086;BME280;72320;50.082;20.000;2024-03-25T12:14:50;97875.95;;;6.75;71.23
21086;BME280;72320;50.082;20.000;2024-03-25T12:17:38;97876.95;;;6.75;71.22
21086;BME280;72320;50.082;20.000;2024-03-25T12:20:24;97877.46;;;6.82;71.20
21086;BME280;72320;50.082;20.000;2024-03-25T12:23:10;97876.13;;;7.20;71.21
21086;BME280;72320;50.082;20.000;2024-03-25T12:25:56;97878.34;;;7.52;70.76
21086;BME280;72320;50.082;20.000;2024-03-25T12:28:42;97878.45;;;7.63;69.94
21086;BME280;72320;50.082;20.000;2024-03-25T12:31:28;97883.35;;;7.86;69.17
21086;BME280;72320;50.082;20.000;2024-03-25T12:34:13;97879.45;;;8.18;68.11
21086;BME280;72320;50.082;20.000;2024-03-25T12:37:03;97879.55;;;8.56;67.00
21086;BME280;72320;50.082;20.000;2024-03-25T12:39:49;97874.10;;;9.06;65.85
21086;BME280;72320;50.082;20.000;2024-03-25T12:42:36;97878.84;;;9.50;64.54
21086;BME280;72320;50.082;20.000;2024-03-25T12:45:23;97884.21;;;9.56;63.31
21086;BME280;72320;50.082;20.000;2024-03-25T12:48:10;97884.71;;;9.25;62.87
21086;BME280;72320;50.082;20.000;2024-03-25T12:50:55;97884.72;;;8.70;63.41
21086;BME280;72320;50.082;20.000;2024-03-25T12:53:44;97895.09;;;8.35;64.39
21086;BME280;72320;50.082;20.000;2024-03-25T12:56:30;97900.12;;;8.37;65.71
21086;BME280;72320;50.082;20.000;2024-03-25T12:59:15;97905.26;;;8.60;66.41
21086;BME280;72320;50.082;20.000;2024-03-25T13:02:01;97906.75;;;8.51;66.16
21086;BME280;72320;50.082;20.000;2024-03-25T13:04:48;97898.83;;;8.73;65.78
21086;BME280;72320;50.082;20.000;2024-03-25T13:07:34;97894.48;;;9.05;65.42
21086;BME280;72320;50.082;20.000;2024-03-25T13:10:00;97896.43;;;9.02;64.85
21086;BME280;72320;50.082;20.000;2024-03-25T13:12:46;97892.39;;;8.79;64.11
21086;BME280;72320;50.082;20.000;2024-03-25T13:15:32;97888.77;;;8.59;64.03
21086;BME280;72320;50.082;20.000;2024-03-25T13:18:13;97891.92;;;8.57;64.43
21086;BME280;72320;50.082;20.000;2024-03-25T13:20:59;97891.10;;;8.57;64.70
21086;BME280;72320;50.082;20.000;2024-03-25T13:23:45;97890.44;;;8.45;64.66
21086;BME280;72320;50.082;20.000;2024-03-25T13:26:32;97889.67;;;8.53;64.64
21086;BME280;72320;50.082;20.000;2024-03-25T13:29:19;97890.05;;;8.73;64.57
21086;BME280;72320;50.082;20.000;2024-03-25T13:32:06;97895.38;;;9.23;63.92
21086;BME280;72320;50.082;20.000;2024-03-25T13:34:53;97895.17;;;9.81;62.48
21086;BME280;72320;50.082;20.000;2024-03-25T13:37:38;97898.23;;;10.11;60.65
21086;BME280;72320;50.082;20.000;2024-03-25T13:40:24;97899.47;;;10.28;58.72
21086;BME280;72320;50.082;20.000;2024-03-25T13:43:10;97900.02;;;10.20;57.69
21086;BME280;72320;50.082;20.000;2024-03-25T13:45:36;97900.63;;;9.80;57.32
21086;BME280;72320;50.082;20.000;2024-03-25T13:48:22;97905.61;;;9.56;57.26
21086;BME280;72320;50.082;20.000;2024-03-25T13:51:08;97909.53;;;9.33;57.64
21086;BME280;72320;50.082;20.000;2024-03-25T13:53:49;97918.58;;;8.87;58.05
21086;BME280;72320;50.082;20.000;2024-03-25T13:56:15;97922.66;;;8.42;58.84
21086;BME280;72320;50.082;20.000;2024-03-25T13:58:41;97936.45;;;8.04;59.89
21086;BME280;72320;50.082;20.000;2024-03-25T14:01:07;97946.77;;;7.60;61.66
21086;BME280;72320;50.082;20.000;2024-03-25T14:03:53;97953.93;;;7.08;63.44
21086;BME280;72320;50.082;20.000;2024-03-25T14:06:19;97957.74;;;6.69;65.32
21086;BME280;72320;50.082;20.000;2024-03-25T14:08:46;97953.64;;;6.20;67.38
21086;BME280;72320;50.082;20.000;2024-03-25T14:11:12;97944.41;;;5.92;69.27
21086;BME280;72320;50.082;20.000;2024-03-25T14:13:38;97946.65;;;6.48;71.01